Time;durP1;ratioP1;P1;durP2;ratioP2;P2;SDS_P1;SDS_P2;PMS_P1;PMS_P2;Temp;Humidity;BMP_temperature;BMP_pressure;BME280_temperature;BME280_humidity;BME280_pressure;Samples;Min_cycle;Max_cycle;Signal;HPM_P1;HPM_P2
2023/09/27 00:01:56;;;;;;;75.30;12.17;;;14.80;99.90;;;;;;4976812;28;20797;-77
2023/09/27 00:04:22;;;;;;;72.20;12.60;;;14.80;99.90;;;;;;4977209;28;20195;-77
2023/09/27 00:06:47;;;;;;;74.37;13.50;;;14.80;99.90;;;;;;4976435;28;20205;-76
2023/09/27 00:09:14;;;;;;;73.27;14.43;;;14.80;99.90;;;;;;4976200;28;20594;-77
2023/09/27 00:11:40;;;;;;;75.00;13.80;;;14.80;99.90;;;;;;4976158;28;20431;-76
2023/09/27 00:14:05;;;;;;;73.00;12.40;;;14.80;99.90;;;;;;4958922;28;20917;-76
2023/09/27 00:16:32;;;;;;;72.20;11.97;;;14.80;99.90;;;;;;4976959;28;20514;-76
2023/09/27 00:18:57;;;;;;;73.27;14.73;;;14.80;99.90;;;;;;4976129;28;20167;-76
2023/09/27 00:21:23;;;;;;;74.70;13.57;;;14.80;99.90;;;;;;4959010;28;20458;-77
2023/09/27 00:23:49;;;;;;;73.20;12.90;;;14.90;99.90;;;;;;4976092;28;20200;-77
2023/09/27 00:26:14;;;;;;;79.03;13.60;;;15.00;99.90;;;;;;4976679;28;20168;-76
2023/09/27 00:28:40;;;;;;;73.07;13.20;;;15.00;99.90;;;;;;4976175;28;20175;-76
2023/09/27 00:31:05;;;;;;;75.37;14.23;;;14.90;99.90;;;;;;4975866;28;20172;-76
2023/09/27 00:33:31;;;;;;;73.30;13.70;;;14.90;99.90;;;;;;4975893;28;20196;-76
2023/09/27 00:35:57;;;;;;;74.57;13.00;;;14.90;99.90;;;;;;4975816;28;20160;-76
2023/09/27 00:38:22;;;;;;;74.53;13.80;;;14.90;99.90;;;;;;4976160;28;20219;-77
2023/09/27 00:40:48;;;;;;;73.10;13.40;;;14.90;99.90;;;;;;4975770;28;20164;-77
2023/09/27 00:43:44;;;;;;;77.20;15.77;;;14.90;99.90;;;;;;4975752;28;20188;-76
2023/09/27 00:46:12;;;;;;;75.53;13.97;;;15.10;99.90;;;;;;4955835;28;20927;-76
2023/09/27 00:48:38;;;;;;;74.77;15.63;;;15.10;99.90;;;;;;4975918;28;20408;-76
2023/09/27 00:51:05;;;;;;;75.80;14.00;;;15.10;99.90;;;;;;4975480;28;20403;-77
2023/09/27 00:53:33;;;;;;;73.87;15.37;;;14.90;99.90;;;;;;4957937;28;20443;-77
2023/09/27 00:56:00;;;;;;;75.37;20.00;;;14.80;99.90;;;;;;4975523;28;20412;-77
2023/09/27 00:58:25;;;;;;;75.57;16.80;;;14.70;99.90;;;;;;4975716;28;20436;-77
2023/09/27 01:00:52;;;;;;;77.07;18.73;;;14.70;99.90;;;;;;4976038;28;20407;-77
2023/09/27 01:03:18;;;;;;;73.97;19.60;;;14.70;99.90;;;;;;4975584;28;20196;-76
2023/09/27 01:05:45;;;;;;;74.43;19.83;;;14.60;99.90;;;;;;4975423;28;20802;-76
2023/09/27 01:08:11;;;;;;;74.90;19.63;;;14.50;99.90;;;;;;4957755;28;20415;-76
2023/09/27 01:10:37;;;;;;;77.33;22.60;;;14.50;99.90;;;;;;4975055;28;20416;-76
2023/09/27 01:13:04;;;;;;;76.30;20.57;;;14.50;99.90;;;;;;4957681;28;20210;-77
2023/09/27 01:15:30;;;;;;;76.53;17.77;;;14.50;99.90;;;;;;4975376;28;20411;-76
2023/09/27 01:17:58;;;;;;;74.80;20.80;;;14.40;99.90;;;;;;4975291;28;20395;-76
2023/09/27 01:20:26;;;;;;;77.17;21.27;;;14.40;99.90;;;;;;4974911;28;20908;-76
2023/09/27 01:23:01;;;;;;;75.30;19.37;;;14.30;99.90;;;;;;4974414;28;20501;-76
2023/09/27 01:25:31;;;;;;;74.27;15.93;;;14.30;99.90;;;;;;4975335;28;20395;-76
2023/09/27 01:28:05;;;;;;;74.07;18.07;;;14.30;99.90;;;;;;4975194;28;20885;-77
2023/09/27 01:30:33;;;;;;;72.80;16.27;;;14.30;99.90;;;;;;4975488;28;20412;-76
2023/09/27 01:33:06;;;;;;;75.57;15.77;;;14.20;99.90;;;;;;4974560;28;20455;-76
2023/09/27 01:35:36;;;;;;;73.47;14.83;;;14.20;99.90;;;;;;4957381;28;20949;-76
2023/09/27 01:38:03;;;;;;;74.97;17.20;;;14.20;99.90;;;;;;4974752;28;20485;-76
2023/09/27 01:40:32;;;;;;;79.97;21.17;;;14.10;99.90;;;;;;4974913;28;20403;-76
2023/09/27 01:42:58;;;;;;;76.30;23.37;;;14.10;99.90;;;;;;4974488;28;20429;-76
2023/09/27 01:45:25;;;;;;;77.90;24.50;;;14.00;99.90;;;;;;4957320;28;20796;-76
2023/09/27 01:47:51;;;;;;;72.93;15.43;;;13.90;99.90;;;;;;4957209;28;20505;-76
2023/09/27 01:50:21;;;;;;;78.93;17.40;;;14.10;99.90;;;;;;4974571;28;20490;-76
2023/09/27 01:52:47;;;;;;;73.93;16.47;;;14.20;99.90;;;;;;4974398;28;20459;-76
2023/09/27 01:55:13;;;;;;;73.63;16.90;;;14.20;99.90;;;;;;4974372;28;20407;-76
2023/09/27 01:57:38;;;;;;;76.83;24.10;;;14.00;99.90;;;;;;4974437;28;20597;-76
2023/09/27 02:00:10;;;;;;;77.60;23.87;;;13.90;99.90;;;;;;4974548;28;20403;-76
2023/09/27 02:02:36;;;;;;;76.00;20.37;;;13.90;99.90;;;;;;4974378;28;20665;-76
2023/09/27 02:05:02;;;;;;;76.60;22.90;;;13.90;99.90;;;;;;4974961;28;20411;-76
2023/09/27 02:07:27;;;;;;;78.13;27.27;;;13.80;99.90;;;;;;4957107;28;20176;-76
2023/09/27 02:09:53;;;;;;;77.83;26.77;;;13.70;99.90;;;;;;4974338;28;20450;-76
2023/09/27 02:12:19;;;;;;;77.90;25.77;;;13.70;99.90;;;;;;4974094;28;20196;-76
2023/09/27 02:14:44;;;;;;;76.90;26.63;;;13.60;99.90;;;;;;4974315;28;20164;-76
2023/09/27 02:17:10;;;;;;;77.73;26.17;;;13.60;99.90;;;;;;4974625;28;20175;-76
2023/09/27 02:19:36;;;;;;;78.27;27.87;;;13.60;99.90;;;;;;4974293;28;20195;-76
2023/09/27 02:22:01;;;;;;;76.70;26.50;;;13.60;99.90;;;;;;4974055;28;20234;-76
2023/09/27 02:24:28;;;;;;;78.30;27.80;;;13.50;99.90;;;;;;4974519;28;20160;-77
2023/09/27 02:26:54;;;;;;;77.60;26.87;;;13.40;99.90;;;;;;4974145;28;20223;-76
2023/09/27 02:29:21;;;;;;;77.03;24.97;;;13.40;99.90;;;;;;4974695;28;20399;-76
2023/09/27 02:31:48;;;;;;;75.90;19.90;;;13.40;99.90;;;;;;4974027;28;20267;-76
2023/09/27 02:34:13;;;;;;;76.17;23.40;;;13.50;99.90;;;;;;4976279;28;20539;-76
2023/09/27 02:36:41;;;;;;;76.53;24.60;;;13.40;99.90;;;;;;4977899;28;20434;-76
2023/09/27 02:39:07;;;;;;;75.37;24.27;;;13.30;99.90;;;;;;4977767;28;20247;-76
2023/09/27 02:41:33;;;;;;;77.27;24.67;;;13.20;99.90;;;;;;4977799;28;20797;-76
2023/09/27 02:43:59;;;;;;;77.40;26.37;;;13.20;99.90;;;;;;4977644;28;20407;-76
2023/09/27 02:46:25;;;;;;;75.67;25.50;;;13.20;99.90;;;;;;4978020;28;20417;-76
2023/09/27 02:48:51;;;;;;;75.67;24.20;;;13.20;99.90;;;;;;4977607;28;20399;-76
2023/09/27 02:51:17;;;;;;;78.57;25.33;;;13.20;99.90;;;;;;4977484;28;20168;-76
2023/09/27 02:53:44;;;;;;;75.10;22.07;;;13.10;99.90;;;;;;4977433;28;20191;-76
2023/09/27 02:56:11;;;;;;;79.70;21.10;;;13.10;99.90;;;;;;4960079;28;20932;-76
2023/09/27 02:58:37;;;;;;;76.90;25.60;;;13.10;99.90;;;;;;4977715;28;20404;-76
2023/09/27 03:01:04;;;;;;;77.27;26.60;;;13.10;99.90;;;;;;4977396;28;20462;-76
2023/09/27 03:03:31;;;;;;;77.27;25.40;;;13.10;99.90;;;;;;4977425;28;20486;-76
2023/09/27 03:05:58;;;;;;;78.10;25.47;;;13.10;99.90;;;;;;4977613;28;20461;-76
2023/09/27 03:08:26;;;;;;;78.03;26.90;;;13.10;99.90;;;;;;4977245;28;20415;-76
2023/09/27 03:10:52;;;;;;;81.27;28.60;;;13.20;99.90;;;;;;4977284;28;20497;-76
2023/09/27 03:13:18;;;;;;;82.30;32.20;;;13.20;99.90;;;;;;4977034;28;20533;-76
2023/09/27 03:15:54;;;;;;;80.50;28.60;;;13.30;99.90;;;;;;4977145;28;20168;-76
2023/09/27 03:18:20;;;;;;;79.83;30.07;;;13.40;99.90;;;;;;4977116;28;20391;-76
2023/09/27 03:20:51;;;;;;;80.00;33.07;;;13.40;99.90;;;;;;4977365;28;20407;-76
2023/09/27 03:23:17;;;;;;;80.30;28.87;;;13.40;99.90;;;;;;4959470;28;20215;-77
2023/09/27 03:25:43;;;;;;;81.10;30.73;;;13.40;99.90;;;;;;4976892;28;20400;-76
2023/09/27 03:28:09;;;;;;;80.07;30.53;;;13.30;99.90;;;;;;4976828;28;20409;-76
2023/09/27 03:30:34;;;;;;;80.37;30.63;;;13.30;99.90;;;;;;4977095;28;20506;-76
2023/09/27 03:33:01;;;;;;;79.87;31.60;;;13.30;99.90;;;;;;4976677;28;20255;-76
2023/09/27 03:35:27;;;;;;;79.37;33.17;;;13.30;99.90;;;;;;4977045;28;20585;-76
2023/09/27 03:37:56;;;;;;;79.60;33.17;;;13.30;99.90;;;;;;4976762;28;20403;-76
2023/09/27 03:40:22;;;;;;;83.20;35.87;;;13.40;99.90;;;;;;4976648;28;20415;-76
2023/09/27 03:42:48;;;;;;;79.77;32.50;;;13.40;99.90;;;;;;4976895;28;20427;-76
2023/09/27 03:45:14;;;;;;;88.20;33.70;;;13.40;99.90;;;;;;4976255;28;20403;-76
2023/09/27 03:47:43;;;;;;;81.27;34.60;;;13.40;99.90;;;;;;4959449;28;20163;-76
2023/09/27 03:50:09;;;;;;;82.47;37.13;;;13.40;99.90;;;;;;4976538;28;20458;-76
2023/09/27 03:52:34;;;;;;;84.60;44.63;;;13.50;99.90;;;;;;4976337;28;20838;-76
2023/09/27 03:55:00;;;;;;;81.77;36.73;;;13.50;99.90;;;;;;4976454;28;20404;-76
2023/09/27 03:57:26;;;;;;;83.13;41.43;;;13.50;99.90;;;;;;4976651;28;20179;-76
2023/09/27 03:59:52;;;;;;;84.83;41.03;;;13.50;99.90;;;;;;4976864;28;20955;-76
2023/09/27 04:02:17;;;;;;;80.23;36.37;;;13.50;99.90;;;;;;4976902;28;20215;-78
2023/09/27 04:04:43;;;;;;;85.37;42.57;;;13.40;99.90;;;;;;4977553;28;20168;-76
2023/09/27 04:07:09;;;;;;;86.00;41.27;;;13.50;99.90;;;;;;4976215;28;20164;-76
2023/09/27 04:09:35;;;;;;;87.40;45.83;;;13.50;99.90;;;;;;4976120;28;20415;-76
2023/09/27 04:12:00;;;;;;;86.67;45.87;;;13.50;99.90;;;;;;4976210;28;20243;-76
2023/09/27 04:14:26;;;;;;;83.60;41.27;;;13.50;99.90;;;;;;4976370;28;20168;-76
2023/09/27 04:16:56;;;;;;;87.40;43.87;;;13.50;99.90;;;;;;4976225;28;20178;-76
2023/09/27 04:19:22;;;;;;;86.23;49.10;;;13.50;99.90;;;;;;4975981;28;20549;-76
2023/09/27 04:21:47;;;;;;;86.57;46.87;;;13.50;99.90;;;;;;4975749;28;20438;-76
2023/09/27 04:24:13;;;;;;;87.57;47.40;;;13.60;99.90;;;;;;4958598;28;20160;-76
2023/09/27 04:26:39;;;;;;;85.53;47.00;;;13.50;99.90;;;;;;4975882;28;20507;-76
2023/09/27 04:29:06;;;;;;;85.73;50.87;;;13.50;99.90;;;;;;4975772;28;20507;-76
2023/09/27 04:31:31;;;;;;;85.07;47.40;;;13.50;99.90;;;;;;4975694;28;20184;-76
2023/09/27 04:33:57;;;;;;;85.30;45.37;;;13.50;99.90;;;;;;4958291;28;20506;-76
2023/09/27 04:36:23;;;;;;;88.33;43.87;;;13.60;99.90;;;;;;4958321;28;20193;-76
2023/09/27 04:38:49;;;;;;;84.37;42.20;;;13.50;99.90;;;;;;4975756;28;20532;-76
2023/09/27 04:41:18;;;;;;;84.10;45.83;;;13.40;99.90;;;;;;4975763;28;20660;-76
2023/09/27 04:43:47;;;;;;;84.77;43.37;;;13.40;99.90;;;;;;4975767;28;20494;-76
2023/09/27 04:46:17;;;;;;;85.47;44.97;;;13.30;99.90;;;;;;4975447;28;20395;-76
2023/09/27 04:48:42;;;;;;;88.13;48.20;;;13.20;99.90;;;;;;4975355;28;20506;-76
2023/09/27 04:51:09;;;;;;;86.47;45.90;;;13.10;99.90;;;;;;4975576;28;20478;-76
2023/09/27 04:53:37;;;;;;;84.00;42.40;;;13.10;99.90;;;;;;4975452;28;20200;-76
2023/09/27 04:56:05;;;;;;;85.70;46.50;;;13.10;99.90;;;;;;4974511;28;20542;-76
2023/09/27 04:58:30;;;;;;;87.53;45.80;;;13.20;99.90;;;;;;4975229;28;20412;-76
2023/09/27 05:00:56;;;;;;;86.37;44.17;;;13.20;99.90;;;;;;4975196;28;20403;-76
2023/09/27 05:03:22;;;;;;;85.97;47.13;;;13.10;99.90;;;;;;4975083;28;20463;-76
2023/09/27 05:05:47;;;;;;;87.10;45.90;;;13.10;99.90;;;;;;4975153;28;20534;-76
2023/09/27 05:08:13;;;;;;;95.37;49.10;;;13.10;99.90;;;;;;4957746;28;20343;-76
2023/09/27 05:10:39;;;;;;;86.80;52.30;;;13.20;99.90;;;;;;4975575;28;20174;-76
2023/09/27 05:13:04;;;;;;;87.90;46.93;;;13.20;99.90;;;;;;4974918;28;20195;-76
2023/09/27 05:15:32;;;;;;;88.47;50.60;;;13.10;99.90;;;;;;4974940;28;20168;-76
2023/09/27 05:17:58;;;;;;;88.93;51.13;;;13.00;99.90;;;;;;4974731;28;20246;-76
2023/09/27 05:20:24;;;;;;;88.40;49.67;;;13.00;99.90;;;;;;4974925;28;20499;-76
2023/09/27 05:22:51;;;;;;;90.27;56.77;;;13.00;99.90;;;;;;4974593;28;20210;-76
2023/09/27 05:25:17;;;;;;;89.90;53.97;;;13.10;99.90;;;;;;4957404;28;20443;-76
2023/09/27 05:27:43;;;;;;;88.10;52.77;;;13.20;99.90;;;;;;4974741;28;20435;-76
2023/09/27 05:30:12;;;;;;;89.37;51.70;;;13.20;99.90;;;;;;4974843;28;20420;-76
2023/09/27 05:32:38;;;;;;;89.97;53.60;;;13.20;99.90;;;;;;4974426;28;20821;-76
2023/09/27 05:35:05;;;;;;;89.43;55.73;;;13.20;99.90;;;;;;4958163;28;20415;-76
2023/09/27 05:37:31;;;;;;;91.27;56.80;;;13.30;99.90;;;;;;4957420;28;20403;-76
2023/09/27 05:39:57;;;;;;;92.93;55.33;;;13.30;99.90;;;;;;4974493;28;20772;-76
2023/09/27 05:42:23;;;;;;;93.17;59.77;;;13.30;99.90;;;;;;4974398;28;20466;-76
2023/09/27 05:44:48;;;;;;;96.57;63.10;;;13.30;99.90;;;;;;4974405;28;20179;-76
2023/09/27 05:47:15;;;;;;;92.67;59.90;;;13.40;99.90;;;;;;4957154;28;20176;-76
2023/09/27 05:49:42;;;;;;;94.83;60.57;;;13.40;99.90;;;;;;4974635;28;20652;-76
2023/09/27 05:52:12;;;;;;;98.37;74.87;;;13.50;99.90;;;;;;4974206;28;20537;-76
2023/09/27 05:54:39;;;;;;;95.03;62.07;;;13.60;99.90;;;;;;4956849;28;20420;-76
2023/09/27 05:57:06;;;;;;;97.10;65.93;;;13.70;99.90;;;;;;4957044;28;20426;-76
2023/09/27 05:59:33;;;;;;;97.53;65.97;;;13.70;99.90;;;;;;4974576;28;20477;-76
2023/09/27 06:01:58;;;;;;;93.50;57.13;;;13.80;99.90;;;;;;4956885;28;20441;-76
2023/09/27 06:04:25;;;;;;;95.57;56.70;;;13.90;99.90;;;;;;4974576;28;20848;-76
2023/09/27 06:06:51;;;;;;;93.70;61.40;;;14.00;99.90;;;;;;4957098;28;20669;-76
2023/09/27 06:09:20;;;;;;;95.37;63.03;;;14.00;99.90;;;;;;4978237;28;20516;-76
2023/09/27 06:16:47;;;;;;;94.10;63.40;;;14.10;99.90;;;;;;4976554;28;20462;-76
2023/09/27 06:19:16;;;;;;;97.35;55.13;;;14.20;99.90;;;;;;4977709;28;20788;-76
2023/09/27 06:21:43;;;;;;;89.93;51.23;;;14.40;99.90;;;;;;4978569;28;20202;-76
2023/09/27 06:24:08;;;;;;;88.03;35.40;;;14.50;99.90;;;;;;4977034;28;20903;-76
2023/09/27 06:26:34;;;;;;;89.07;43.47;;;14.60;99.90;;;;;;4978032;28;20195;-76
2023/09/27 06:29:00;;;;;;;91.87;54.70;;;14.50;99.90;;;;;;4978053;28;20403;-76
2023/09/27 06:31:25;;;;;;;93.53;55.27;;;14.50;99.90;;;;;;4978154;28;20184;-76
2023/09/27 06:33:51;;;;;;;93.90;58.53;;;14.60;99.90;;;;;;4978580;28;20246;-76
2023/09/27 06:36:21;;;;;;;93.50;57.87;;;14.60;99.90;;;;;;4977803;28;20175;-76
2023/09/27 06:38:48;;;;;;;100.43;61.33;;;14.60;99.90;;;;;;4978822;28;20421;-76
2023/09/27 06:41:15;;;;;;;90.63;53.03;;;14.60;99.90;;;;;;4977966;28;20404;-75
2023/09/27 06:43:41;;;;;;;90.83;52.10;;;14.60;99.90;;;;;;4977974;28;20522;-75
2023/09/27 06:46:10;;;;;;;96.83;53.40;;;14.60;99.90;;;;;;4977820;28;20442;-76
2023/09/27 06:48:36;;;;;;;95.60;52.77;;;14.60;99.90;;;;;;4976784;28;20215;-76
2023/09/27 06:51:02;;;;;;;92.70;58.73;;;14.70;99.90;;;;;;4977876;28;20421;-76
2023/09/27 06:53:28;;;;;;;92.77;51.13;;;14.70;99.90;;;;;;4976103;28;20451;-76
2023/09/27 06:55:53;;;;;;;92.20;61.33;;;14.70;99.90;;;;;;4976268;28;20947;-76
2023/09/27 06:58:23;;;;;;;90.20;53.47;;;14.80;99.90;;;;;;4977771;28;20175;-76
2023/09/27 07:00:51;;;;;;;89.20;50.70;;;14.80;99.90;;;;;;4977963;28;20164;-76
2023/09/27 07:03:19;;;;;;;91.33;53.33;;;14.90;99.90;;;;;;4977336;28;20435;-76
2023/09/27 07:05:46;;;;;;;93.70;57.33;;;14.90;99.90;;;;;;4976102;28;20423;-76
2023/09/27 07:08:13;;;;;;;95.03;54.07;;;14.90;99.90;;;;;;4977634;28;20388;-76
2023/09/27 07:10:38;;;;;;;92.20;57.43;;;14.90;99.90;;;;;;4977490;28;20897;-76
2023/09/27 07:13:06;;;;;;;91.73;52.53;;;14.90;99.90;;;;;;4977305;28;20442;-76
2023/09/27 07:15:32;;;;;;;98.93;57.50;;;15.00;99.90;;;;;;4976999;28;20431;-76
2023/09/27 07:17:58;;;;;;;97.00;60.17;;;15.00;99.90;;;;;;4977112;28;20935;-76
2023/09/27 07:20:27;;;;;;;90.03;51.20;;;15.00;99.90;;;;;;4976230;28;20176;-76
2023/09/27 07:22:54;;;;;;;90.97;52.53;;;15.10;99.90;;;;;;4977210;28;20430;-76
2023/09/27 07:25:21;;;;;;;88.33;45.10;;;15.30;99.90;;;;;;4976991;28;20772;-76
2023/09/27 07:27:51;;;;;;;100.60;70.03;;;15.40;99.90;;;;;;4976946;28;20413;-76
2023/09/27 07:30:23;;;;;;;89.90;40.83;;;15.50;99.90;;;;;;4976858;28;20506;-76
2023/09/27 07:32:50;;;;;;;85.17;35.87;;;15.60;99.90;;;;;;4977027;28;20502;-76
2023/09/27 07:35:16;;;;;;;81.50;26.40;;;15.70;99.90;;;;;;4977043;28;20498;-76
2023/09/27 07:37:43;;;;;;;80.93;26.13;;;15.80;99.90;;;;;;4976804;28;20404;-76
2023/09/27 07:40:11;;;;;;;79.00;24.60;;;15.80;99.90;;;;;;4977049;28;20793;-76
2023/09/27 07:42:37;;;;;;;81.00;21.30;;;15.80;99.90;;;;;;4976565;28;20431;-76
2023/09/27 07:45:05;;;;;;;77.77;21.30;;;15.90;99.90;;;;;;4976654;28;20849;-76
2023/09/27 07:47:31;;;;;;;82.10;22.30;;;15.90;99.90;;;;;;4976552;28;20905;-76
2023/09/27 07:49:56;;;;;;;81.90;21.63;;;15.90;99.90;;;;;;4976572;28;20411;-76
2023/09/27 07:52:22;;;;;;;79.00;22.60;;;16.00;99.90;;;;;;4976354;28;20680;-76
2023/09/27 07:54:48;;;;;;;81.53;21.90;;;16.10;99.90;;;;;;4976760;28;20519;-76
2023/09/27 07:57:14;;;;;;;79.87;21.80;;;16.10;99.90;;;;;;4976966;28;20179;-76
2023/09/27 07:59:40;;;;;;;83.83;22.20;;;16.10;99.90;;;;;;4976946;28;20626;-76
2023/09/27 08:02:05;;;;;;;78.90;21.80;;;16.00;99.90;;;;;;4976316;28;20518;-76
2023/09/27 08:04:32;;;;;;;79.93;22.90;;;16.00;99.90;;;;;;4976294;28;20411;-76
2023/09/27 08:06:57;;;;;;;81.40;23.50;;;15.90;99.90;;;;;;4976526;28;20630;-76
2023/09/27 08:09:24;;;;;;;83.83;25.93;;;15.90;99.90;;;;;;4976701;28;20494;-76
2023/09/27 08:11:50;;;;;;;82.73;24.97;;;15.90;99.90;;;;;;4975996;28;20195;-76
2023/09/27 08:14:18;;;;;;;82.80;27.97;;;15.90;99.90;;;;;;4976132;28;20862;-76
2023/09/27 08:16:44;;;;;;;90.13;27.47;;;15.90;99.90;;;;;;4975906;28;20430;-76
2023/09/27 08:19:09;;;;;;;88.67;30.20;;;15.90;99.90;;;;;;4976023;28;20901;-76
2023/09/27 08:21:35;;;;;;;86.63;30.77;;;15.90;99.90;;;;;;4975872;28;20518;-76
2023/09/27 08:24:01;;;;;;;87.90;31.30;;;16.00;99.90;;;;;;4975912;28;20326;-76
2023/09/27 08:26:27;;;;;;;84.80;32.60;;;16.20;99.90;;;;;;4975914;28;20171;-76
2023/09/27 08:28:53;;;;;;;84.47;26.17;;;16.20;99.90;;;;;;4990981;28;20664;-76
2023/09/27 08:31:19;;;;;;;85.53;26.10;;;16.20;99.90;;;;;;4974399;28;20415;-76
2023/09/27 08:33:45;;;;;;;83.50;24.70;;;16.30;99.90;;;;;;4976267;28;20263;-76
2023/09/27 08:36:11;;;;;;;84.47;23.70;;;16.40;99.90;;;;;;4975703;28;20443;-76
2023/09/27 08:38:36;;;;;;;84.90;24.93;;;16.50;99.90;;;;;;4975623;28;20179;-76
2023/09/27 08:41:05;;;;;;;83.90;28.97;;;16.50;99.90;;;;;;4975884;28;20168;-76
2023/09/27 08:43:32;;;;;;;83.97;25.57;;;16.60;99.90;;;;;;4975889;28;20153;-76
2023/09/27 08:45:59;;;;;;;81.20;22.67;;;16.70;99.90;;;;;;4975539;28;20436;-76
2023/09/27 08:48:27;;;;;;;85.07;22.70;;;16.80;99.90;;;;;;4975430;28;20427;-76
2023/09/27 08:50:54;;;;;;;80.87;24.00;;;17.00;99.90;;;;;;4975423;28;20407;-76
2023/09/27 08:53:20;;;;;;;84.60;22.33;;;17.00;99.90;;;;;;4975548;28;20451;-76
2023/09/27 08:55:49;;;;;;;82.27;23.63;;;17.10;99.90;;;;;;4975464;28;20446;-76
2023/09/27 08:58:15;;;;;;;85.77;22.63;;;17.20;99.90;;;;;;4975248;28;20164;-76
2023/09/27 09:00:42;;;;;;;80.70;24.63;;;17.30;99.90;;;;;;4975483;28;20408;-77
2023/09/27 09:03:08;;;;;;;79.83;23.60;;;17.20;99.90;;;;;;4975145;28;20423;-77
2023/09/27 09:05:36;;;;;;;81.93;26.83;;;17.20;99.90;;;;;;4975405;28;21020;-76
2023/09/27 09:08:05;;;;;;;79.03;23.00;;;17.20;99.90;;;;;;4975134;28;20407;-77
2023/09/27 09:10:31;;;;;;;79.70;24.07;;;17.30;99.90;;;;;;4973802;28;20411;-77
2023/09/27 09:12:59;;;;;;;81.60;27.50;;;17.40;99.90;;;;;;4974900;28;20537;-77
2023/09/27 09:15:28;;;;;;;82.10;26.90;;;17.50;99.90;;;;;;4974860;28;20202;-77
2023/09/27 09:17:57;;;;;;;82.57;25.57;;;17.60;99.90;;;;;;4975172;28;20430;-77
2023/09/27 09:20:27;;;;;;;85.27;25.10;;;17.60;99.90;;;;;;4975165;28;20410;-77
2023/09/27 09:22:57;;;;;;;81.10;26.97;;;17.80;99.90;;;;;;4975007;28;20419;-77
2023/09/27 09:25:23;;;;;;;82.97;27.67;;;17.90;99.90;;;;;;4975393;28;20516;-77
2023/09/27 09:28:08;;;;;;;80.90;26.77;;;18.00;99.90;;;;;;4975061;28;20913;-77
2023/09/27 09:30:35;;;;;;;82.10;27.90;;;18.10;99.90;;;;;;4974694;28;20415;-77
2023/09/27 09:33:01;;;;;;;83.93;26.73;;;18.10;99.90;;;;;;4974589;28;20991;-77
2023/09/27 09:35:34;;;;;;;82.97;31.33;;;18.20;99.90;;;;;;4974953;28;20414;-77
2023/09/27 09:38:01;;;;;;;79.67;28.90;;;18.30;99.90;;;;;;4975080;28;20387;-77
2023/09/27 09:40:31;;;;;;;82.10;28.33;;;18.50;99.90;;;;;;4974883;28;20453;-76
2023/09/27 09:42:59;;;;;;;83.23;27.63;;;18.70;99.90;;;;;;4974110;28;20426;-77
2023/09/27 09:45:26;;;;;;;78.53;18.70;;;18.80;99.90;;;;;;4974529;28;20403;-77
2023/09/27 09:47:52;;;;;;;77.50;18.33;;;19.00;99.90;;;;;;4974584;28;20819;-77
2023/09/27 09:50:18;;;;;;;75.37;14.50;;;19.10;99.90;;;;;;4973207;28;20411;-77
2023/09/27 09:52:58;;;;;;;73.63;11.23;;;19.30;99.90;;;;;;4973052;28;20533;-77
2023/09/27 09:55:34;;;;;;;72.60;10.70;;;19.50;99.90;;;;;;4973178;28;20399;-77
2023/09/27 09:58:22;;;;;;;77.33;10.60;;;19.60;99.90;;;;;;4974713;28;20387;-77
2023/09/27 10:00:51;;;;;;;75.80;12.10;;;19.80;99.90;;;;;;4974493;28;20388;-77
2023/09/27 10:03:21;;;;;;;72.97;10.13;;;19.90;63.00;;;;;;4974289;28;20423;-77
2023/09/27 10:05:50;;;;;;;77.27;10.80;;;20.10;40.80;;;;;;4974450;28;20844;-77
2023/09/27 10:08:17;;;;;;;73.43;10.53;;;20.20;28.00;;;;;;4974522;28;20836;-77
2023/09/27 10:10:43;;;;;;;73.57;10.47;;;20.20;18.60;;;;;;4974255;28;20407;-77
2023/09/27 10:13:10;;;;;;;72.90;10.70;;;20.20;20.20;;;;;;4974111;28;20478;-77
2023/09/27 10:15:38;;;;;;;71.20;8.80;;;20.20;35.40;;;;;;4974090;28;20176;-77
2023/09/27 10:18:22;;;;;;;74.23;8.37;;;20.40;25.30;;;;;;4974232;28;20400;-77
2023/09/27 10:21:08;;;;;;;70.80;8.50;;;20.70;24.80;;;;;;4974175;28;20794;-77
2023/09/27 10:23:46;;;;;;;72.27;8.93;;;21.00;3.70;;;;;;4974334;28;20391;-77
2023/09/27 10:26:32;;;;;;;75.00;9.87;;;21.10;1.00;;;;;;4974690;28;20407;-77
2023/09/27 10:29:01;;;;;;;72.37;9.47;;;21.50;1.00;;;;;;4974451;28;20419;-77
2023/09/27 10:31:27;;;;;;;73.97;13.70;;;21.70;1.00;;;;;;4974107;28;20466;-77
2023/09/27 10:33:53;;;;;;;76.40;13.97;;;21.70;1.00;;;;;;4974491;28;21047;-77
2023/09/27 10:36:19;;;;;;;75.40;14.00;;;21.70;1.00;;;;;;4974939;28;20430;-79
2023/09/27 10:38:45;;;;;;;71.70;11.70;;;21.80;1.00;;;;;;4974871;28;20164;-78
2023/09/27 10:41:33;;;;;;;71.40;7.17;;;22.00;1.00;;;;;;4973929;28;20175;-78
2023/09/27 10:44:00;;;;;;;72.00;6.43;;;22.20;1.00;;;;;;4975001;28;20783;-79
2023/09/27 10:46:25;;;;;;;71.87;5.10;;;22.30;1.00;;;;;;4975480;28;20399;-79
2023/09/27 10:48:58;;;;;;;71.10;5.13;;;22.50;1.00;;;;;;4975698;28;20465;-78
2023/09/27 10:51:26;;;;;;;71.47;6.10;;;22.40;1.00;;;;;;4976262;28;20214;-79
2023/09/27 10:53:53;;;;;;;69.40;5.50;;;22.60;1.00;;;;;;4976474;28;20547;-79
2023/09/27 10:56:19;;;;;;;70.00;7.00;;;22.80;1.00;;;;;;4979519;28;20414;-78
2023/09/27 10:58:45;;;;;;;71.60;7.97;;;23.10;1.00;;;;;;4979828;28;20399;-79
2023/09/27 11:01:14;;;;;;;73.90;7.63;;;23.20;1.00;;;;;;4979891;28;20490;-78
2023/09/27 11:03:40;;;;;;;72.70;7.87;;;23.50;1.00;;;;;;4979618;28;20502;-79
2023/09/27 11:06:12;;;;;;;71.27;11.63;;;23.60;1.00;;;;;;4980202;28;20447;-79
2023/09/27 11:08:40;;;;;;;73.77;17.97;;;23.60;1.00;;;;;;4979953;28;20165;-79
2023/09/27 11:11:12;;;;;;;76.87;20.37;;;23.60;1.00;;;;;;4978359;28;20418;-79
2023/09/27 11:13:42;;;;;;;74.90;16.97;;;23.70;1.00;;;;;;4979158;28;20442;-78
2023/09/27 11:16:09;;;;;;;80.10;20.40;;;23.60;1.00;;;;;;4979176;28;20423;-79
2023/09/27 11:18:43;;;;;;;74.37;20.50;;;23.50;1.00;;;;;;4979095;28;20738;-79
2023/09/27 11:21:09;;;;;;;74.90;20.67;;;23.60;1.00;;;;;;4978918;28;20388;-79
2023/09/27 11:23:53;;;;;;;75.97;20.33;;;23.70;1.00;;;;;;4979242;28;20939;-78
2023/09/27 11:26:22;;;;;;;75.60;20.07;;;23.80;1.00;;;;;;4976996;28;20419;-78
2023/09/27 11:29:07;;;;;;;76.30;20.13;;;23.80;1.00;;;;;;4977487;28;20407;-78
2023/09/27 11:31:38;;;;;;;77.07;18.83;;;23.70;1.00;;;;;;4978126;28;20489;-79
2023/09/27 11:34:21;;;;;;;73.70;19.10;;;23.60;1.00;;;;;;4978895;28;20474;-78
2023/09/27 11:36:49;;;;;;;74.37;16.67;;;23.60;1.00;;;;;;4978247;28;20490;-78
2023/09/27 11:39:17;;;;;;;74.10;18.50;;;23.50;1.00;;;;;;4977928;28;20442;-78
2023/09/27 11:41:44;;;;;;;74.90;19.70;;;23.30;1.00;;;;;;4978694;28;20792;-78
2023/09/27 11:44:20;;;;;;;73.67;18.77;;;23.50;1.00;;;;;;4979026;28;20411;-79
2023/09/27 11:46:50;;;;;;;73.87;17.20;;;23.40;1.00;;;;;;4979690;28;20410;-79
2023/09/27 11:49:17;;;;;;;73.53;16.07;;;23.30;1.00;;;;;;4979242;28;20392;-78
2023/09/27 11:51:43;;;;;;;74.77;17.77;;;23.30;1.00;;;;;;4979040;28;20454;-79
2023/09/27 11:54:12;;;;;;;74.10;19.80;;;23.30;1.00;;;;;;4978644;28;20450;-78
2023/09/27 11:56:38;;;;;;;74.30;17.17;;;23.20;1.00;;;;;;4978860;28;20400;-78
2023/09/27 11:59:04;;;;;;;73.80;20.07;;;23.20;1.00;;;;;;4977937;28;20482;-78
2023/09/27 12:01:31;;;;;;;77.37;20.27;;;23.20;1.00;;;;;;4978220;28;20431;-79
2023/09/27 12:03:58;;;;;;;79.57;24.20;;;23.50;1.00;;;;;;4978535;28;20160;-78
2023/09/27 12:06:25;;;;;;;80.10;24.27;;;23.70;1.00;;;;;;4978014;28;20413;-78
2023/09/27 12:08:54;;;;;;;73.60;17.90;;;24.00;1.00;;;;;;4978270;28;20527;-79
2023/09/27 12:11:20;;;;;;;74.17;19.00;;;24.20;1.00;;;;;;4976586;28;20427;-79
2023/09/27 12:13:46;;;;;;;72.10;11.90;;;24.40;1.00;;;;;;4978775;28;20448;-79
2023/09/27 12:16:12;;;;;;;73.20;15.97;;;24.60;1.00;;;;;;4977977;28;20236;-78
2023/09/27 12:18:37;;;;;;;70.50;8.27;;;24.90;1.00;;;;;;4976887;28;20247;-79
2023/09/27 12:21:03;;;;;;;73.57;12.37;;;24.90;1.00;;;;;;4976982;28;20180;-79
2023/09/27 12:23:29;;;;;;;71.50;8.90;;;24.80;1.00;;;;;;4978910;28;20168;-79
2023/09/27 12:25:55;;;;;;;73.60;10.30;;;24.80;1.00;;;;;;4979183;28;20637;-78
2023/09/27 12:28:20;;;;;;;72.50;8.73;;;24.70;1.00;;;;;;4976632;28;20415;-79
2023/09/27 12:30:46;;;;;;;70.97;9.00;;;24.70;1.00;;;;;;4977122;28;20180;-78
2023/09/27 12:33:13;;;;;;;72.13;10.30;;;24.50;1.00;;;;;;4977245;28;20199;-79
2023/09/27 12:35:39;;;;;;;71.00;9.33;;;24.20;1.00;;;;;;4978067;28;20160;-78